createdAt,value
2022-12-29T00:00:14.527Z,90.10
2022-12-29T00:02:41.116Z,68.20
2022-12-29T00:05:08.564Z,63.50
2022-12-29T00:07:35.410Z,65.20
2022-12-29T00:10:01.888Z,67.00
2022-12-29T00:12:28.680Z,71.10
2022-12-29T00:14:55.213Z,61.40
2022-12-29T00:17:21.837Z,79.00
2022-12-29T00:19:48.404Z,59.50
2022-12-29T00:22:15.501Z,60.80
2022-12-29T00:24:42.117Z,61.90
2022-12-29T00:27:08.636Z,42.40
2022-12-29T00:29:35.085Z,49.20
2022-12-29T00:32:01.616Z,45.40
2022-12-29T00:34:28.156Z,47.70
2022-12-29T00:36:54.615Z,47.90
2022-12-29T00:39:21.175Z,52.30
2022-12-29T00:41:49.135Z,52.70
2022-12-29T00:44:15.759Z,52.90
2022-12-29T00:46:43.915Z,54.00
2022-12-29T00:49:13.240Z,54.10
2022-12-29T00:51:40.569Z,51.50
2022-12-29T00:54:07.265Z,53.10
2022-12-29T00:56:34.020Z,45.30
2022-12-29T00:59:02.392Z,44.50
2022-12-29T01:01:29.370Z,49.50
2022-12-29T01:04:01.961Z,54.30
2022-12-29T01:06:30.575Z,50.60
2022-12-29T01:08:57.124Z,47.60
2022-12-29T01:11:23.568Z,54.70
2022-12-29T01:13:50.124Z,57.00
2022-12-29T01:16:16.705Z,52.90
2022-12-29T01:18:44.910Z,52.60
2022-12-29T01:21:11.318Z,47.50
2022-12-29T01:23:37.818Z,51.40
2022-12-29T01:26:11.920Z,50.20
2022-12-29T01:28:38.587Z,50.50
2022-12-29T01:31:05.241Z,48.30
2022-12-29T01:33:31.912Z,52.00
2022-12-29T01:36:07.481Z,54.40
2022-12-29T01:38:35.703Z,50.20
2022-12-29T01:41:02.660Z,44.10
2022-12-29T01:43:56.705Z,41.10
2022-12-29T01:46:38.043Z,41.30
2022-12-29T01:49:16.345Z,47.20
2022-12-29T01:52:00.378Z,43.60
2022-12-29T01:54:35.945Z,43.30
2022-12-29T01:57:06.080Z,47.00
2022-12-29T01:59:37.785Z,39.30
2022-12-29T02:02:05.542Z,39.10
2022-12-29T02:04:34.047Z,43.90
2022-12-29T02:07:04.838Z,46.70
2022-12-29T02:09:31.968Z,56.20
2022-12-29T02:12:00.484Z,37.10
2022-12-29T02:14:26.988Z,42.00
2022-12-29T02:17:26.299Z,36.50
2022-12-29T02:20:08.126Z,33.70
2022-12-29T02:23:14.436Z,34.60
2022-12-29T02:25:56.100Z,35.30
2022-12-29T02:28:54.411Z,28.50
2022-12-29T02:31:29.777Z,31.00
2022-12-29T02:34:36.483Z,37.40
2022-12-29T02:37:25.772Z,32.70
2022-12-29T02:40:04.180Z,30.50
2022-12-29T02:42:33.615Z,30.40
2022-12-29T02:45:27.502Z,34.20
2022-12-29T02:48:17.661Z,30.10
2022-12-29T02:50:58.654Z,32.20
2022-12-29T02:53:27.539Z,37.10
2022-12-29T02:55:54.112Z,40.00
2022-12-29T02:58:23.699Z,39.00
2022-12-29T03:01:09.907Z,40.00
2022-12-29T03:04:01.014Z,35.40
2022-12-29T03:06:52.128Z,36.40
2022-12-29T03:09:40.075Z,35.70
2022-12-29T03:12:31.447Z,35.10
2022-12-29T03:15:00.909Z,33.40
2022-12-29T03:17:42.014Z,31.40
2022-12-29T03:20:11.281Z,29.00
2022-12-29T03:22:45.869Z,27.80
2022-12-29T03:25:18.820Z,27.20
2022-12-29T03:27:50.271Z,28.60
2022-12-29T03:32:48.255Z,26.00
2022-12-29T03:35:18.311Z,26.10
2022-12-29T03:37:53.537Z,26.90
2022-12-29T03:40:23.664Z,32.80
2022-12-29T03:42:51.221Z,27.40
2022-12-29T03:45:17.871Z,23.70
2022-12-29T03:47:45.117Z,23.60
2022-12-29T03:50:13.907Z,22.80
2022-12-29T03:52:41.041Z,21.50
2022-12-29T03:55:08.204Z,22.10
2022-12-29T03:57:34.870Z,20.30
2022-12-29T04:00:01.399Z,21.90
2022-12-29T04:02:27.987Z,25.30
2022-12-29T04:04:54.564Z,25.30
2022-12-29T04:07:20.984Z,24.60
2022-12-29T04:09:47.563Z,27.50
2022-12-29T04:12:14.216Z,25.60
2022-12-29T04:14:41.352Z,27.00
2022-12-29T04:17:07.845Z,30.60
2022-12-29T04:19:34.341Z,25.30
2022-12-29T04:22:00.790Z,22.90
2022-12-29T04:24:27.281Z,24.10
2022-12-29T04:26:53.824Z,20.50
2022-12-29T04:29:20.383Z,20.90
2022-12-29T04:31:47.029Z,21.40
2022-12-29T04:34:13.720Z,20.20
2022-12-29T04:36:40.845Z,26.90
2022-12-29T04:39:08.313Z,24.30
2022-12-29T04:41:34.849Z,27.70
2022-12-29T04:44:01.287Z,31.00
2022-12-29T04:46:27.973Z,26.20
2022-12-29T04:48:54.787Z,30.00
2022-12-29T04:51:21.363Z,28.80
2022-12-29T04:53:47.878Z,32.60
2022-12-29T04:56:14.412Z,35.20
2022-12-29T04:58:41.148Z,29.40
2022-12-29T05:01:07.675Z,25.90
2022-12-29T05:03:34.125Z,31.80
2022-12-29T05:06:00.755Z,39.50
2022-12-29T05:08:28.491Z,31.90
2022-12-29T05:10:55.384Z,37.60
2022-12-29T05:13:21.997Z,31.90
2022-12-29T05:15:51.834Z,29.90
2022-12-29T05:18:19.230Z,30.80
2022-12-29T05:20:46.972Z,27.80
2022-12-29T05:23:14.278Z,33.30
2022-12-29T05:25:40.833Z,29.10
2022-12-29T05:28:07.244Z,33.00
2022-12-29T05:30:34.221Z,27.90
2022-12-29T05:33:00.692Z,36.10
2022-12-29T05:35:27.190Z,28.20
2022-12-29T05:37:53.669Z,30.50
2022-12-29T05:40:20.221Z,35.10
2022-12-29T05:42:46.962Z,28.00
2022-12-29T05:45:13.489Z,20.30
2022-12-29T05:47:41.052Z,25.00
2022-12-29T05:50:08.168Z,39.90
2022-12-29T05:52:34.786Z,35.10
2022-12-29T05:55:01.239Z,58.90
2022-12-29T05:57:27.731Z,31.50
2022-12-29T05:59:54.276Z,32.10
2022-12-29T06:02:20.795Z,38.70
2022-12-29T06:04:47.381Z,26.20
2022-12-29T06:07:13.986Z,18.40
2022-12-29T06:09:40.435Z,13.40
2022-12-29T06:12:07.174Z,14.70
2022-12-29T06:14:33.819Z,11.50
2022-12-29T06:17:00.655Z,11.50
2022-12-29T06:19:27.090Z,18.90
2022-12-29T06:21:53.537Z,36.30
2022-12-29T06:24:20.597Z,30.30
2022-12-29T06:26:47.090Z,28.30
2022-12-29T06:29:13.774Z,25.90
2022-12-29T06:31:40.819Z,31.30
2022-12-29T06:34:08.608Z,28.30
2022-12-29T06:36:35.861Z,26.00
2022-12-29T06:39:02.286Z,21.60
2022-12-29T06:41:32.439Z,22.00
2022-12-29T06:43:59.214Z,22.50
2022-12-29T06:46:25.736Z,23.40
2022-12-29T06:48:52.341Z,23.70
2022-12-29T06:51:18.793Z,22.90
2022-12-29T06:53:45.177Z,25.00
2022-12-29T06:56:11.728Z,33.70
2022-12-29T06:58:38.240Z,28.60
2022-12-29T07:01:04.971Z,30.40
2022-12-29T07:03:31.602Z,27.30
2022-12-29T07:05:58.051Z,33.00
2022-12-29T07:08:25.486Z,24.00
2022-12-29T07:10:51.914Z,27.20
2022-12-29T07:13:18.325Z,29.50
2022-12-29T07:15:44.901Z,27.40
2022-12-29T07:18:11.300Z,29.90
2022-12-29T07:20:37.806Z,31.10
2022-12-29T07:23:04.312Z,33.50
2022-12-29T07:25:30.726Z,27.70
2022-12-29T07:27:57.167Z,31.20
2022-12-29T07:30:23.602Z,39.40
2022-12-29T07:32:50.148Z,38.70
2022-12-29T07:35:16.946Z,41.90
2022-12-29T07:37:44.373Z,47.40
2022-12-29T07:40:11.831Z,38.60
2022-12-29T07:42:38.291Z,48.80
2022-12-29T07:45:05.728Z,57.30
2022-12-29T07:47:32.267Z,56.90
2022-12-29T07:49:58.813Z,64.80
2022-12-29T07:52:25.551Z,47.50
2022-12-29T07:54:52.606Z,52.30
2022-12-29T07:57:19.082Z,57.70
2022-12-29T07:59:45.580Z,43.40
2022-12-29T08:02:12.433Z,46.70
2022-12-29T08:04:39.372Z,74.10
2022-12-29T08:07:05.810Z,55.00
2022-12-29T08:09:32.194Z,51.50
2022-12-29T08:11:58.796Z,54.00
2022-12-29T08:14:25.218Z,61.10
2022-12-29T08:16:51.630Z,58.40
2022-12-29T08:19:18.118Z,78.20
2022-12-29T08:21:44.571Z,67.40
2022-12-29T08:24:11.312Z,71.70
2022-12-29T08:26:37.945Z,90.60
2022-12-29T08:29:04.409Z,77.30
2022-12-29T08:31:30.978Z,74.90
2022-12-29T08:33:57.518Z,68.00
2022-12-29T08:36:24.031Z,83.80
2022-12-29T08:38:50.513Z,154.00
2022-12-29T08:41:17.201Z,99.10
2022-12-29T08:43:47.464Z,87.00
2022-12-29T08:46:14.268Z,64.60
2022-12-29T08:48:40.999Z,59.50
2022-12-29T08:51:09.555Z,67.60
2022-12-29T08:53:36.200Z,60.60
2022-12-29T08:56:05.438Z,54.90
2022-12-29T08:58:33.190Z,43.40
2022-12-29T09:01:00.248Z,31.50
2022-12-29T09:03:54.953Z,36.80
2022-12-29T09:06:14.651Z,16.50
2022-12-29T09:08:41.175Z,14.40
2022-12-29T09:11:09.757Z,12.10
2022-12-29T09:13:36.303Z,11.40
2022-12-29T09:16:03.728Z,14.80
2022-12-29T09:18:30.789Z,12.00
2022-12-29T09:21:02.372Z,11.10
2022-12-29T09:23:29.319Z,11.00
2022-12-29T09:25:55.748Z,9.90
2022-12-29T09:28:23.119Z,15.60
2022-12-29T09:30:51.320Z,12.20
2022-12-29T09:33:18.541Z,11.70
2022-12-29T09:35:56.642Z,10.00
2022-12-29T09:38:24.749Z,15.10
2022-12-29T09:40:53.639Z,16.30
2022-12-29T09:43:42.675Z,45.90
2022-12-29T09:46:17.900Z,19.90
2022-12-29T09:48:55.146Z,17.10
2022-12-29T09:51:24.602Z,22.60
2022-12-29T09:54:01.748Z,16.10
2022-12-29T09:56:28.926Z,14.30
2022-12-29T09:59:02.015Z,14.70
2022-12-29T10:01:59.661Z,9.90
2022-12-29T10:04:30.000Z,9.30
2022-12-29T10:07:29.096Z,9.30
2022-12-29T10:10:21.547Z,8.80
2022-12-29T10:13:22.927Z,12.40
2022-12-29T10:19:00.600Z,11.00
2022-12-29T10:21:31.385Z,12.40
2022-12-29T10:24:01.109Z,20.70
2022-12-29T10:26:30.994Z,15.00
2022-12-29T10:29:04.454Z,12.50
2022-12-29T10:31:44.379Z,10.10
2022-12-29T10:34:24.668Z,11.30
2022-12-29T10:36:58.279Z,12.50
2022-12-29T10:39:44.370Z,15.50
2022-12-29T10:42:19.167Z,12.30
2022-12-29T10:44:45.830Z,15.30
2022-12-29T10:47:22.001Z,10.00
2022-12-29T10:49:49.403Z,9.30
2022-12-29T10:52:19.708Z,11.30
2022-12-29T10:55:04.481Z,11.60
2022-12-29T10:57:40.172Z,11.90
2022-12-29T11:00:22.065Z,10.90
2022-12-29T11:03:07.359Z,8.90
2022-12-29T11:05:45.887Z,11.60
2022-12-29T11:08:17.773Z,9.70
2022-12-29T11:10:46.158Z,10.00
2022-12-29T11:13:12.586Z,7.50
2022-12-29T11:15:47.429Z,9.90
2022-12-29T11:18:27.096Z,11.10
2022-12-29T11:20:57.507Z,8.00
2022-12-29T11:23:31.857Z,8.90
2022-12-29T11:26:18.899Z,9.00
2022-12-29T11:29:06.793Z,9.80
2022-12-29T11:31:41.881Z,11.30
2022-12-29T11:34:09.172Z,11.50
2022-12-29T11:36:37.213Z,11.50
2022-12-29T11:39:07.678Z,7.60
2022-12-29T11:41:37.048Z,6.80
2022-12-29T11:44:06.832Z,7.90
2022-12-29T11:46:38.185Z,7.70
2022-12-29T11:49:05.628Z,9.40
2022-12-29T11:51:44.677Z,8.10
2022-12-29T11:54:20.258Z,16.20
2022-12-29T11:56:47.331Z,11.80
2022-12-29T11:59:28.772Z,9.80
2022-12-29T12:01:56.397Z,8.50
2022-12-29T12:04:35.129Z,7.60
2022-12-29T12:07:18.355Z,9.20
2022-12-29T12:09:51.579Z,11.70
2022-12-29T12:12:44.180Z,10.80
2022-12-29T12:15:20.430Z,9.00
2022-12-29T12:18:01.185Z,11.20
2022-12-29T12:20:44.084Z,9.30
2022-12-29T12:23:19.458Z,12.20
2022-12-29T12:25:52.388Z,12.00
2022-12-29T12:28:30.533Z,14.90
2022-12-29T12:31:02.831Z,11.50
2022-12-29T12:33:36.345Z,12.80
2022-12-29T12:36:33.217Z,10.60
2022-12-29T12:39:07.325Z,10.40
2022-12-29T12:41:55.781Z,10.70
2022-12-29T12:44:34.333Z,11.20
2022-12-29T12:47:34.394Z,13.00
2022-12-29T12:50:16.735Z,9.60
2022-12-29T12:53:30.908Z,9.70
2022-12-29T12:56:12.538Z,11.10
2022-12-29T12:58:49.323Z,13.10
2022-12-29T13:01:25.038Z,10.00
2022-12-29T13:04:22.788Z,10.70
2022-12-29T13:07:08.727Z,12.50
2022-12-29T13:10:23.259Z,13.30
2022-12-29T13:13:22.254Z,8.40
2022-12-29T13:16:14.651Z,14.10
2022-12-29T13:19:00.211Z,14.50
2022-12-29T13:22:03.887Z,11.00
2022-12-29T13:25:05.372Z,11.80
2022-12-29T13:27:57.304Z,10.60
2022-12-29T13:30:34.577Z,12.00
2022-12-29T13:33:21.322Z,12.00
2022-12-29T13:36:06.997Z,10.60
2022-12-29T13:38:41.263Z,9.40
2022-12-29T13:41:15.552Z,14.00
2022-12-29T13:43:45.535Z,12.10
2022-12-29T13:46:16.825Z,11.00
2022-12-29T13:48:57.687Z,10.10
2022-12-29T13:51:28.123Z,12.10
2022-12-29T13:54:15.903Z,13.70
2022-12-29T13:57:00.799Z,13.60
2022-12-29T13:59:42.227Z,12.60
2022-12-29T14:05:25.286Z,12.30
2022-12-29T14:08:01.155Z,16.40
2022-12-29T14:10:33.429Z,11.80
2022-12-29T14:13:07.586Z,12.90
2022-12-29T14:15:34.504Z,15.60
2022-12-29T14:18:05.804Z,16.30
2022-12-29T14:23:11.596Z,14.80
2022-12-29T14:26:06.960Z,13.10
2022-12-29T14:28:48.010Z,13.90
2022-12-29T14:31:17.579Z,16.10
2022-12-29T14:34:12.001Z,22.40
2022-12-29T14:36:42.525Z,17.80
2022-12-29T14:39:45.546Z,17.00
2022-12-29T14:42:14.651Z,16.00
2022-12-29T14:45:13.448Z,32.80
2022-12-29T14:47:48.270Z,30.90
2022-12-29T14:50:22.090Z,29.00
2022-12-29T14:52:52.057Z,27.00
2022-12-29T14:55:32.654Z,29.30
2022-12-29T14:58:02.959Z,28.40
2022-12-29T15:00:35.834Z,25.80
2022-12-29T15:03:07.852Z,19.40
2022-12-29T15:05:50.490Z,22.40
2022-12-29T15:08:23.837Z,28.80
2022-12-29T15:10:54.629Z,32.60
2022-12-29T15:13:33.707Z,31.80
2022-12-29T15:16:00.319Z,34.10
2022-12-29T15:18:30.630Z,29.00
2022-12-29T15:21:01.053Z,26.30
2022-12-29T15:23:29.234Z,26.80
2022-12-29T15:26:05.921Z,28.30
2022-12-29T15:28:41.892Z,26.40
2022-12-29T15:31:17.637Z,28.40
2022-12-29T15:33:47.869Z,32.10
2022-12-29T15:36:24.231Z,29.00
2022-12-29T15:38:50.957Z,34.80
2022-12-29T15:41:35.722Z,27.60
2022-12-29T15:44:24.700Z,38.80
2022-12-29T15:46:51.237Z,36.00
2022-12-29T15:49:17.903Z,30.60
2022-12-29T15:51:44.942Z,30.50
2022-12-29T15:54:19.977Z,32.50
2022-12-29T15:56:47.335Z,47.40
2022-12-29T15:59:46.966Z,75.00
2022-12-29T16:02:13.627Z,105.40
2022-12-29T16:05:01.659Z,66.50
2022-12-29T16:07:35.807Z,77.90
2022-12-29T16:10:06.523Z,65.20
2022-12-29T16:12:36.565Z,58.30
2022-12-29T16:15:13.370Z,76.20
2022-12-29T16:17:49.782Z,130.70
2022-12-29T16:20:20.726Z,258.50
2022-12-29T16:22:51.296Z,187.50
2022-12-29T16:25:29.248Z,179.90
2022-12-29T16:27:56.259Z,210.10
2022-12-29T16:30:33.152Z,263.90
2022-12-29T16:33:03.426Z,205.70
2022-12-29T16:35:45.485Z,184.00
2022-12-29T16:38:17.594Z,106.10
2022-12-29T16:40:56.982Z,60.20
2022-12-29T16:43:25.263Z,69.90
2022-12-29T16:45:51.682Z,84.50
2022-12-29T16:48:24.521Z,88.60
2022-12-29T16:50:51.290Z,196.00
2022-12-29T16:53:39.314Z,148.50
2022-12-29T16:56:18.228Z,127.30
2022-12-29T16:58:49.618Z,140.30
2022-12-29T17:01:16.199Z,177.50
2022-12-29T17:03:47.550Z,163.80
2022-12-29T17:08:46.034Z,59.50
2022-12-29T17:11:29.559Z,65.70
2022-12-29T17:13:56.034Z,81.50
2022-12-29T17:16:22.468Z,90.40
2022-12-29T17:18:49.065Z,83.80
2022-12-29T17:21:15.453Z,73.80
2022-12-29T17:23:41.915Z,62.60
2022-12-29T17:26:09.784Z,62.10
2022-12-29T17:28:36.176Z,85.70
2022-12-29T17:31:05.924Z,193.10
2022-12-29T17:33:39.891Z,241.50
2022-12-29T17:36:06.834Z,362.60
2022-12-29T17:38:36.277Z,378.90
2022-12-29T17:41:03.019Z,310.90
2022-12-29T17:43:36.381Z,246.40
2022-12-29T17:46:07.228Z,352.00
2022-12-29T17:48:33.966Z,220.40
2022-12-29T17:51:00.718Z,201.30
2022-12-29T17:53:29.879Z,178.30
2022-12-29T17:55:56.305Z,208.60
2022-12-29T17:58:28.476Z,196.60
2022-12-29T18:00:58.396Z,202.10
2022-12-29T18:03:28.592Z,206.50
2022-12-29T18:05:55.453Z,201.60
2022-12-29T18:08:22.143Z,223.30
2022-12-29T18:10:48.701Z,170.00
2022-12-29T18:13:22.889Z,150.90
2022-12-29T18:15:49.699Z,311.10
2022-12-29T18:18:19.205Z,521.00
2022-12-29T18:20:47.170Z,221.00
2022-12-29T18:23:21.388Z,341.90
2022-12-29T18:26:13.760Z,155.90
2022-12-29T18:28:40.204Z,371.00
2022-12-29T18:31:16.913Z,287.30
2022-12-29T18:33:43.370Z,188.10
2022-12-29T18:36:12.700Z,152.40
2022-12-29T18:38:39.438Z,152.10
2022-12-29T18:41:13.355Z,150.00
2022-12-29T18:43:39.884Z,154.10
2022-12-29T18:46:06.440Z,192.70
2022-12-29T18:48:33.103Z,154.20
2022-12-29T18:50:59.533Z,138.10
2022-12-29T18:53:26.032Z,165.70
2022-12-29T18:55:53.912Z,339.70
2022-12-29T18:58:20.750Z,355.40
2022-12-29T19:00:47.560Z,244.60
2022-12-29T19:03:16.948Z,345.20
2022-12-29T19:05:45.756Z,268.90
2022-12-29T19:08:12.965Z,289.40
2022-12-29T19:10:40.430Z,270.80
2022-12-29T19:13:06.934Z,297.20
2022-12-29T19:15:35.836Z,238.00
2022-12-29T19:18:42.365Z,234.80
2022-12-29T19:20:54.135Z,236.50
2022-12-29T19:23:23.229Z,213.20
2022-12-29T19:25:50.465Z,359.10
2022-12-29T19:28:22.968Z,241.00
2022-12-29T19:30:52.459Z,239.30
2022-12-29T19:33:22.103Z,187.30
2022-12-29T19:35:50.182Z,169.60
2022-12-29T19:38:17.512Z,207.20
2022-12-29T19:40:46.370Z,222.00
2022-12-29T19:43:13.953Z,180.90
2022-12-29T19:45:41.247Z,185.70
2022-12-29T19:48:12.993Z,209.10
2022-12-29T19:50:39.770Z,205.40
2022-12-29T19:53:06.223Z,340.30
2022-12-29T19:55:32.865Z,259.70
2022-12-29T19:57:59.411Z,254.10
2022-12-29T20:00:25.927Z,344.60
2022-12-29T20:02:52.781Z,299.40
2022-12-29T20:05:19.619Z,186.20
2022-12-29T20:07:46.073Z,174.50
2022-12-29T20:10:12.902Z,195.30
2022-12-29T20:12:39.393Z,363.30
2022-12-29T20:15:10.582Z,323.40
2022-12-29T20:18:12.064Z,256.20
2022-12-29T20:20:23.555Z,218.30
2022-12-29T20:22:50.005Z,161.20
2022-12-29T20:25:44.130Z,123.30
2022-12-29T20:28:03.569Z,137.10
2022-12-29T20:30:30.091Z,102.90
2022-12-29T20:32:56.636Z,127.10
2022-12-29T20:35:23.375Z,143.20
2022-12-29T20:37:49.809Z,131.00
2022-12-29T20:40:16.225Z,119.40
2022-12-29T20:42:42.792Z,115.50
2022-12-29T20:45:09.365Z,116.90
2022-12-29T20:47:35.773Z,123.20
2022-12-29T20:50:02.428Z,147.80
2022-12-29T20:52:28.872Z,174.80
2022-12-29T20:54:55.386Z,112.50
2022-12-29T20:57:21.816Z,97.80
2022-12-29T20:59:48.476Z,106.80
2022-12-29T21:02:20.866Z,100.70
2022-12-29T21:05:22.299Z,95.10
2022-12-29T21:07:34.216Z,99.60
2022-12-29T21:10:00.767Z,92.20
2022-12-29T21:12:27.715Z,69.00
2022-12-29T21:14:54.140Z,65.10
2022-12-29T21:17:20.618Z,88.20
2022-12-29T21:19:47.048Z,90.70
2022-12-29T21:22:13.448Z,78.60
2022-12-29T21:24:39.946Z,53.10
2022-12-29T21:27:06.432Z,52.40
2022-12-29T21:29:32.827Z,45.00
2022-12-29T21:32:05.576Z,44.50
2022-12-29T21:34:32.703Z,41.50
2022-12-29T21:36:59.259Z,37.80
2022-12-29T21:39:25.737Z,41.10
2022-12-29T21:41:52.227Z,47.50
2022-12-29T21:44:18.666Z,96.40
2022-12-29T21:46:45.208Z,95.90
2022-12-29T21:49:11.740Z,67.90
2022-12-29T21:51:38.192Z,73.00
2022-12-29T21:54:04.722Z,64.60
2022-12-29T21:56:31.158Z,50.30
2022-12-29T21:58:57.595Z,76.60
2022-12-29T22:01:25.786Z,71.90
2022-12-29T22:03:52.373Z,64.30
2022-12-29T22:06:18.761Z,48.60
2022-12-29T22:08:45.291Z,47.70
2022-12-29T22:11:12.188Z,58.40
2022-12-29T22:13:38.988Z,51.10
2022-12-29T22:16:11.636Z,67.40
2022-12-29T22:18:38.936Z,104.40
2022-12-29T22:21:08.006Z,90.70
2022-12-29T22:23:34.486Z,92.90
2022-12-29T22:26:05.320Z,132.90
2022-12-29T22:28:32.054Z,136.10
2022-12-29T22:30:58.578Z,83.40
2022-12-29T22:33:25.021Z,65.10
2022-12-29T22:35:51.574Z,105.60
2022-12-29T22:38:18.024Z,77.80
2022-12-29T22:40:44.547Z,78.00
2022-12-29T22:43:13.252Z,94.60
2022-12-29T22:45:41.118Z,91.10
2022-12-29T22:48:08.352Z,72.60
2022-12-29T22:50:34.736Z,78.20
2022-12-29T22:53:01.192Z,91.70
2022-12-29T22:55:27.685Z,79.90
2022-12-29T22:57:54.069Z,79.00
2022-12-29T23:00:20.665Z,82.20
2022-12-29T23:02:47.378Z,81.90
2022-12-29T23:05:14.091Z,77.50
2022-12-29T23:07:40.606Z,76.90
2022-12-29T23:10:07.630Z,82.20
2022-12-29T23:12:34.087Z,73.40
2022-12-29T23:15:00.862Z,86.30
2022-12-29T23:17:27.647Z,73.60
2022-12-29T23:19:54.137Z,83.60
2022-12-29T23:22:20.995Z,79.50
2022-12-29T23:24:47.594Z,130.20
2022-12-29T23:27:14.138Z,114.70
2022-12-29T23:29:40.680Z,88.60
2022-12-29T23:32:07.214Z,89.00
2022-12-29T23:34:33.629Z,77.50
2022-12-29T23:37:00.193Z,70.90
2022-12-29T23:39:26.600Z,77.50
2022-12-29T23:41:53.087Z,69.50
2022-12-29T23:44:19.710Z,63.90
2022-12-29T23:46:46.410Z,58.00
2022-12-29T23:49:13.317Z,55.80
2022-12-29T23:51:39.843Z,56.60
2022-12-29T23:54:06.417Z,53.80
2022-12-29T23:56:32.866Z,63.70
2022-12-29T23:58:59.515Z,59.10
